createdAt,value
2023-03-29T00:00:14.564Z,95.03
2023-03-29T00:01:34.965Z,95.03
2023-03-29T00:02:38.189Z,94.92
2023-03-29T00:03:42.537Z,94.55
2023-03-29T00:04:46.234Z,94.27
2023-03-29T00:05:49.138Z,94.94
2023-03-29T00:06:52.168Z,95.32
2023-03-29T00:07:54.516Z,95.41
2023-03-29T00:08:56.652Z,96.46
2023-03-29T00:09:58.735Z,97.02
2023-03-29T00:11:01.155Z,97.29
2023-03-29T00:12:04.372Z,97.98
2023-03-29T00:13:06.311Z,98.34
2023-03-29T00:14:08.293Z,99.33
2023-03-29T00:15:10.397Z,99.71
2023-03-29T00:16:13.366Z,100.00
2023-03-29T00:17:15.609Z,100.00
2023-03-29T00:18:17.548Z,100.00
2023-03-29T00:19:19.138Z,100.00
2023-03-29T00:20:20.746Z,100.00
2023-03-29T00:21:22.413Z,100.00
2023-03-29T00:22:24.480Z,99.92
2023-03-29T00:23:27.688Z,99.46
2023-03-29T00:24:29.773Z,99.59
2023-03-29T00:25:31.808Z,99.47
2023-03-29T00:26:34.681Z,99.20
2023-03-29T00:27:37.792Z,98.24
2023-03-29T00:28:41.117Z,97.58
2023-03-29T00:29:42.686Z,97.29
2023-03-29T00:30:47.324Z,97.49
2023-03-29T00:31:53.840Z,97.95
2023-03-29T00:32:56.274Z,98.27
2023-03-29T00:33:59.276Z,98.29
2023-03-29T00:35:01.144Z,97.79
2023-03-29T00:36:04.878Z,96.98
2023-03-29T00:37:08.978Z,96.53
2023-03-29T00:38:10.972Z,96.25
2023-03-29T00:39:13.086Z,96.68
2023-03-29T00:40:15.866Z,96.61
2023-03-29T00:41:17.805Z,96.53
2023-03-29T00:42:20.561Z,96.95
2023-03-29T00:43:23.304Z,97.09
2023-03-29T00:45:06.049Z,95.76
2023-03-29T00:46:10.155Z,96.16
2023-03-29T00:47:11.959Z,94.26
2023-03-29T00:48:21.941Z,92.50
2023-03-29T00:49:23.930Z,92.05
2023-03-29T00:50:32.573Z,91.08
2023-03-29T00:51:38.121Z,91.22
2023-03-29T00:52:42.085Z,89.42
2023-03-29T00:54:09.724Z,88.96
2023-03-29T00:55:17.765Z,88.21
2023-03-29T00:56:27.730Z,87.74
2023-03-29T00:57:32.535Z,84.51
2023-03-29T00:58:40.467Z,82.46
2023-03-29T00:59:45.521Z,80.53
2023-03-29T01:00:58.050Z,80.23
2023-03-29T01:02:07.258Z,80.60
2023-03-29T01:03:25.064Z,82.80
2023-03-29T01:04:36.776Z,80.02
2023-03-29T01:05:44.294Z,77.52
2023-03-29T01:07:28.653Z,77.34
2023-03-29T01:08:42.098Z,78.24
2023-03-29T01:09:49.963Z,79.30
2023-03-29T01:11:16.903Z,81.59
2023-03-29T01:12:28.652Z,80.31
2023-03-29T01:14:04.566Z,79.43
2023-03-29T01:15:12.217Z,79.32
2023-03-29T01:16:14.775Z,80.44
2023-03-29T01:17:16.967Z,79.58
2023-03-29T01:18:22.155Z,77.35
2023-03-29T01:19:30.883Z,76.56
2023-03-29T01:21:03.049Z,76.98
2023-03-29T01:22:38.881Z,77.67
2023-03-29T01:24:08.632Z,75.24
2023-03-29T01:25:37.358Z,76.77
2023-03-29T01:27:07.958Z,77.79
2023-03-29T01:28:37.921Z,82.95
2023-03-29T01:29:57.684Z,84.03
2023-03-29T01:31:18.911Z,84.54
2023-03-29T01:32:38.832Z,84.32
2023-03-29T01:34:25.876Z,83.70
2023-03-29T01:35:44.974Z,82.52
2023-03-29T01:37:11.529Z,82.67
2023-03-29T01:38:58.916Z,83.28
2023-03-29T01:40:13.795Z,85.10
2023-03-29T01:41:23.974Z,84.92
2023-03-29T01:42:45.100Z,85.02
2023-03-29T01:44:23.693Z,85.49
2023-03-29T01:45:27.277Z,84.78
2023-03-29T01:46:50.115Z,84.08
2023-03-29T01:48:36.679Z,83.08
2023-03-29T01:49:59.538Z,83.66
2023-03-29T01:51:31.811Z,82.10
2023-03-29T01:52:52.485Z,82.65
2023-03-29T01:54:04.792Z,79.60
2023-03-29T01:55:16.688Z,80.22
2023-03-29T01:56:23.367Z,81.77
2023-03-29T01:57:36.364Z,79.64
2023-03-29T01:58:51.751Z,78.90
2023-03-29T02:00:05.565Z,75.92
2023-03-29T02:01:20.665Z,75.40
2023-03-29T02:02:38.085Z,74.90
2023-03-29T02:03:54.179Z,75.42
2023-03-29T02:05:09.805Z,75.46
2023-03-29T02:06:25.887Z,76.35
2023-03-29T02:07:41.547Z,77.63
2023-03-29T02:08:57.030Z,77.07
2023-03-29T02:10:25.183Z,75.54
2023-03-29T02:13:33.914Z,74.53
2023-03-29T02:16:51.034Z,74.99
2023-03-29T02:17:58.102Z,75.98
2023-03-29T02:19:00.513Z,75.98
2023-03-29T02:20:17.911Z,76.44
2023-03-29T02:21:28.347Z,76.15
2023-03-29T02:22:38.151Z,76.09
2023-03-29T02:23:45.663Z,74.39
2023-03-29T02:26:20.037Z,75.42
2023-03-29T02:27:27.161Z,75.31
2023-03-29T02:28:32.118Z,74.36
2023-03-29T02:29:35.204Z,74.20
2023-03-29T02:30:50.470Z,73.58
2023-03-29T02:32:00.864Z,73.64
2023-03-29T02:33:22.285Z,73.92
2023-03-29T02:34:37.638Z,73.88
2023-03-29T02:35:53.276Z,74.94
2023-03-29T02:37:00.343Z,74.27
2023-03-29T02:38:09.112Z,74.22
2023-03-29T02:39:16.008Z,74.36
2023-03-29T02:40:18.921Z,74.92
2023-03-29T02:41:23.871Z,74.86
2023-03-29T02:42:27.830Z,74.73
2023-03-29T02:43:31.305Z,74.41
2023-03-29T02:44:38.165Z,74.92
2023-03-29T02:45:42.382Z,75.46
2023-03-29T02:46:46.433Z,75.43
2023-03-29T02:47:55.060Z,74.98
2023-03-29T02:48:58.328Z,73.74
2023-03-29T02:50:00.948Z,73.03
2023-03-29T02:51:11.155Z,71.39
2023-03-29T02:52:19.189Z,71.74
2023-03-29T02:53:27.297Z,71.68
2023-03-29T02:54:31.739Z,72.93
2023-03-29T02:55:37.042Z,73.44
2023-03-29T02:56:46.715Z,73.64
2023-03-29T02:57:48.420Z,72.43
2023-03-29T02:58:50.038Z,72.64
2023-03-29T02:59:52.834Z,72.28
2023-03-29T03:00:57.130Z,72.66
2023-03-29T03:01:59.718Z,72.76
2023-03-29T03:03:02.994Z,73.11
2023-03-29T03:04:06.445Z,72.88
2023-03-29T03:05:09.717Z,73.04
2023-03-29T03:06:12.242Z,74.71
2023-03-29T03:07:14.035Z,74.72
2023-03-29T03:08:15.639Z,74.48
2023-03-29T03:09:17.761Z,73.84
2023-03-29T03:10:19.357Z,73.71
2023-03-29T03:11:21.324Z,73.97
2023-03-29T03:12:23.244Z,73.96
2023-03-29T03:13:26.296Z,74.43
2023-03-29T03:14:29.518Z,74.59
2023-03-29T03:15:35.840Z,73.60
2023-03-29T03:16:39.992Z,73.90
2023-03-29T03:17:42.440Z,74.20
2023-03-29T03:18:46.186Z,74.06
2023-03-29T03:19:48.269Z,74.06
2023-03-29T03:21:02.217Z,74.40
2023-03-29T03:22:06.266Z,74.87
2023-03-29T03:23:11.246Z,75.56
2023-03-29T03:24:13.625Z,75.34
2023-03-29T03:25:17.042Z,75.30
2023-03-29T03:26:20.129Z,76.25
2023-03-29T03:27:23.179Z,76.45
2023-03-29T03:28:27.448Z,76.53
2023-03-29T03:29:33.410Z,76.88
2023-03-29T03:30:36.592Z,75.13
2023-03-29T03:31:41.925Z,74.96
2023-03-29T03:32:44.939Z,74.97
2023-03-29T03:33:48.433Z,75.49
2023-03-29T03:34:50.558Z,75.06
2023-03-29T03:35:52.667Z,74.70
2023-03-29T03:36:56.127Z,75.06
2023-03-29T03:37:57.938Z,75.20
2023-03-29T03:38:59.980Z,74.32
2023-03-29T03:40:01.967Z,74.26
2023-03-29T03:41:04.370Z,74.36
2023-03-29T03:42:08.431Z,74.61
2023-03-29T03:43:10.673Z,74.24
2023-03-29T03:44:13.847Z,74.04
2023-03-29T03:45:17.027Z,74.55
2023-03-29T03:46:19.472Z,74.59
2023-03-29T03:47:21.392Z,74.86
2023-03-29T03:48:23.884Z,74.93
2023-03-29T03:49:25.850Z,74.98
2023-03-29T03:50:28.169Z,74.94
2023-03-29T03:51:32.284Z,74.89
2023-03-29T03:52:33.988Z,74.94
2023-03-29T03:53:36.050Z,74.58
2023-03-29T03:54:38.439Z,74.69
2023-03-29T03:55:40.251Z,74.27
2023-03-29T03:56:42.425Z,73.97
2023-03-29T03:57:44.801Z,74.33
2023-03-29T03:58:47.842Z,74.17
2023-03-29T03:59:49.772Z,74.52
2023-03-29T04:00:51.962Z,74.57
2023-03-29T04:01:53.633Z,74.68
2023-03-29T04:02:56.319Z,74.99
2023-03-29T04:03:59.395Z,74.92
2023-03-29T04:05:03.732Z,75.31
2023-03-29T04:06:05.740Z,75.41
2023-03-29T04:07:08.208Z,75.35
2023-03-29T04:08:10.940Z,75.71
2023-03-29T04:09:13.354Z,75.75
2023-03-29T04:10:16.120Z,75.93
2023-03-29T04:11:17.943Z,75.74
2023-03-29T04:12:19.745Z,76.33
2023-03-29T04:13:22.541Z,76.43
2023-03-29T04:14:24.270Z,76.66
2023-03-29T04:15:26.695Z,76.49
2023-03-29T04:16:30.080Z,77.08
2023-03-29T04:17:32.210Z,76.94
2023-03-29T04:18:36.474Z,77.00
2023-03-29T04:19:39.402Z,77.72
2023-03-29T04:20:41.156Z,77.67
2023-03-29T04:21:43.365Z,77.92
2023-03-29T04:22:45.689Z,78.08
2023-03-29T04:23:48.090Z,78.34
2023-03-29T04:24:51.710Z,78.63
2023-03-29T04:25:56.819Z,78.57
2023-03-29T04:26:58.676Z,78.72
2023-03-29T04:28:01.745Z,79.31
2023-03-29T04:29:04.808Z,79.35
2023-03-29T04:30:08.167Z,80.12
2023-03-29T04:31:14.125Z,80.25
2023-03-29T04:32:15.773Z,80.37
2023-03-29T04:33:17.625Z,80.71
2023-03-29T04:34:19.711Z,80.83
2023-03-29T04:35:22.454Z,81.04
2023-03-29T04:36:24.946Z,80.96
2023-03-29T04:37:29.953Z,81.05
2023-03-29T04:38:37.093Z,81.15
2023-03-29T04:39:39.176Z,80.69
2023-03-29T04:40:40.961Z,80.72
2023-03-29T04:41:42.837Z,80.93
2023-03-29T04:42:47.023Z,81.66
2023-03-29T04:43:48.909Z,81.48
2023-03-29T04:44:53.235Z,81.84
2023-03-29T04:45:55.735Z,82.12
2023-03-29T04:46:58.663Z,82.42
2023-03-29T04:48:01.211Z,82.33
2023-03-29T04:49:03.975Z,82.33
2023-03-29T04:50:08.642Z,82.14
2023-03-29T04:51:10.501Z,82.19
2023-03-29T04:52:12.423Z,82.49
2023-03-29T04:53:14.212Z,82.10
2023-03-29T04:54:15.936Z,81.94
2023-03-29T04:55:17.852Z,81.84
2023-03-29T04:56:21.737Z,81.78
2023-03-29T04:57:23.450Z,82.12
2023-03-29T04:58:32.280Z,82.40
2023-03-29T04:59:35.093Z,82.23
2023-03-29T05:00:38.104Z,81.59
2023-03-29T05:01:40.504Z,81.20
2023-03-29T05:02:44.779Z,81.16
2023-03-29T05:03:46.760Z,81.36
2023-03-29T05:04:48.573Z,81.18
2023-03-29T05:05:51.056Z,81.31
2023-03-29T05:06:54.058Z,81.45
2023-03-29T05:07:56.053Z,82.34
2023-03-29T05:08:58.442Z,82.03
2023-03-29T05:10:00.275Z,81.54
2023-03-29T05:11:02.192Z,81.22
2023-03-29T05:12:06.076Z,82.30
2023-03-29T05:13:10.075Z,82.03
2023-03-29T05:14:11.824Z,82.11
2023-03-29T05:15:13.463Z,81.68
2023-03-29T05:16:16.079Z,81.39
2023-03-29T05:17:18.032Z,81.20
2023-03-29T05:18:19.860Z,81.02
2023-03-29T05:19:24.485Z,81.47
2023-03-29T05:20:28.501Z,81.38
2023-03-29T05:21:31.629Z,81.38
2023-03-29T05:22:33.601Z,81.71
2023-03-29T05:23:36.173Z,80.61
2023-03-29T05:24:38.052Z,80.11
2023-03-29T05:25:40.574Z,80.12
2023-03-29T05:26:42.543Z,80.13
2023-03-29T05:27:45.926Z,80.02
2023-03-29T05:28:51.058Z,79.82
2023-03-29T05:29:53.841Z,79.97
2023-03-29T05:31:01.553Z,79.94
2023-03-29T05:32:03.492Z,79.54
2023-03-29T05:33:05.899Z,78.97
2023-03-29T05:34:07.753Z,78.71
2023-03-29T05:35:11.468Z,79.60
2023-03-29T05:36:15.996Z,79.78
2023-03-29T05:37:18.030Z,79.75
2023-03-29T05:38:21.496Z,80.05
2023-03-29T05:39:23.791Z,80.09
2023-03-29T05:40:27.238Z,80.05
2023-03-29T05:41:29.422Z,80.16
2023-03-29T05:42:31.330Z,80.66
2023-03-29T05:43:33.993Z,82.76
2023-03-29T05:44:35.900Z,81.36
2023-03-29T05:45:37.651Z,81.41
2023-03-29T05:46:39.370Z,81.45
2023-03-29T05:47:41.948Z,81.24
2023-03-29T05:48:43.800Z,81.10
2023-03-29T05:49:46.809Z,79.73
2023-03-29T05:50:54.015Z,79.09
2023-03-29T05:51:57.121Z,79.25
2023-03-29T05:53:00.509Z,79.54
2023-03-29T05:54:02.187Z,79.21
2023-03-29T05:55:05.167Z,79.05
2023-03-29T05:56:12.124Z,78.85
2023-03-29T05:57:16.511Z,78.39
2023-03-29T05:58:19.385Z,77.96
2023-03-29T05:59:23.935Z,78.18
2023-03-29T06:00:25.902Z,78.01
2023-03-29T06:01:28.637Z,77.54
2023-03-29T06:02:30.323Z,77.60
2023-03-29T06:03:32.502Z,78.78
2023-03-29T06:04:34.519Z,79.13
2023-03-29T06:05:37.683Z,79.33
2023-03-29T06:06:43.072Z,79.47
2023-03-29T06:07:45.395Z,79.64
2023-03-29T06:08:47.855Z,80.09
2023-03-29T06:09:51.236Z,79.55
2023-03-29T06:11:05.801Z,79.81
2023-03-29T06:12:08.436Z,79.90
2023-03-29T06:13:11.192Z,80.46
2023-03-29T06:14:14.338Z,80.93
2023-03-29T06:15:18.088Z,80.28
2023-03-29T06:16:20.235Z,80.36
2023-03-29T06:17:22.405Z,80.30
2023-03-29T06:18:24.903Z,80.29
2023-03-29T06:19:26.638Z,80.16
2023-03-29T06:20:32.495Z,79.52
2023-03-29T06:21:34.680Z,78.94
2023-03-29T06:22:39.940Z,78.69
2023-03-29T06:23:42.189Z,78.44
2023-03-29T06:24:44.872Z,78.05
2023-03-29T06:25:48.805Z,78.15
2023-03-29T06:26:52.340Z,77.54
2023-03-29T06:27:54.318Z,77.98
2023-03-29T06:28:56.529Z,78.98
2023-03-29T06:29:58.596Z,78.98
2023-03-29T06:31:05.114Z,78.65
2023-03-29T06:32:08.827Z,76.96
2023-03-29T06:33:10.859Z,76.03
2023-03-29T06:34:14.249Z,76.10
2023-03-29T06:35:16.610Z,77.39
2023-03-29T06:36:18.508Z,76.79
2023-03-29T06:37:21.945Z,75.43
2023-03-29T06:38:26.859Z,75.49
2023-03-29T06:39:28.919Z,75.40
2023-03-29T06:40:31.771Z,74.91
2023-03-29T06:41:33.830Z,72.71
2023-03-29T06:42:36.659Z,73.16
2023-03-29T06:43:40.839Z,73.46
2023-03-29T06:44:42.560Z,73.40
2023-03-29T06:45:49.031Z,73.23
2023-03-29T06:46:51.764Z,71.86
2023-03-29T06:47:55.582Z,72.17
2023-03-29T06:48:57.323Z,70.95
2023-03-29T06:50:00.165Z,70.64
2023-03-29T06:51:04.890Z,70.97
2023-03-29T06:52:06.791Z,70.81
2023-03-29T06:53:08.737Z,70.58
2023-03-29T06:54:11.707Z,70.20
2023-03-29T06:55:13.735Z,69.36
2023-03-29T06:56:16.821Z,69.58
2023-03-29T06:57:18.649Z,69.87
2023-03-29T06:58:20.645Z,69.88
2023-03-29T06:59:23.065Z,68.93
2023-03-29T07:00:32.346Z,70.81
2023-03-29T07:01:35.170Z,69.72
2023-03-29T07:02:37.054Z,70.65
2023-03-29T07:03:39.528Z,70.40
2023-03-29T07:04:43.264Z,70.49
2023-03-29T07:05:45.053Z,69.82
2023-03-29T07:06:49.542Z,69.88
2023-03-29T07:08:00.468Z,69.71
2023-03-29T07:09:06.467Z,69.55
2023-03-29T07:10:08.891Z,69.59
2023-03-29T07:11:13.268Z,70.19
2023-03-29T07:12:15.160Z,69.77
2023-03-29T07:13:18.146Z,67.97
2023-03-29T07:14:23.540Z,68.14
2023-03-29T07:15:26.881Z,68.71
2023-03-29T07:16:29.433Z,66.85
2023-03-29T07:17:31.770Z,67.11
2023-03-29T07:18:33.416Z,66.34
2023-03-29T07:19:35.526Z,67.06
2023-03-29T07:20:39.334Z,67.61
2023-03-29T07:21:42.502Z,67.34
2023-03-29T07:22:50.762Z,67.33
2023-03-29T07:23:53.993Z,66.60
2023-03-29T07:24:56.715Z,66.52
2023-03-29T07:26:01.610Z,68.79
2023-03-29T07:27:04.905Z,66.94
2023-03-29T07:28:07.030Z,66.64
2023-03-29T07:29:10.093Z,66.57
2023-03-29T07:30:16.844Z,65.40
2023-03-29T07:31:18.643Z,65.95
2023-03-29T07:32:22.927Z,65.77
2023-03-29T07:33:25.514Z,65.08
2023-03-29T07:34:30.219Z,64.75
2023-03-29T07:35:34.343Z,65.10
2023-03-29T07:36:43.708Z,65.17
2023-03-29T07:37:48.217Z,66.11
2023-03-29T07:38:53.994Z,63.07
2023-03-29T07:39:58.341Z,63.34
2023-03-29T07:41:05.509Z,63.44
2023-03-29T07:42:07.578Z,63.44
2023-03-29T07:43:10.957Z,63.18
2023-03-29T07:44:12.740Z,61.73
2023-03-29T07:45:26.698Z,60.83
2023-03-29T07:46:30.717Z,60.32
2023-03-29T07:47:37.058Z,58.15
2023-03-29T07:48:40.296Z,58.41
2023-03-29T07:49:45.611Z,57.91
2023-03-29T07:50:47.870Z,58.09
2023-03-29T07:51:49.933Z,58.79
2023-03-29T07:52:54.169Z,58.01
2023-03-29T07:53:55.953Z,57.41
2023-03-29T07:54:58.165Z,57.35
2023-03-29T07:56:03.155Z,58.35
2023-03-29T07:57:06.238Z,57.83
2023-03-29T07:58:15.478Z,56.80
2023-03-29T07:59:17.464Z,57.00
2023-03-29T08:00:22.060Z,56.76
2023-03-29T08:01:25.563Z,57.05
2023-03-29T08:02:28.011Z,56.49
2023-03-29T08:03:30.129Z,56.38
2023-03-29T08:04:33.131Z,56.34
2023-03-29T08:05:41.279Z,56.15
2023-03-29T08:06:43.551Z,55.85
2023-03-29T08:07:46.693Z,55.71
2023-03-29T08:08:48.403Z,55.54
2023-03-29T08:09:51.264Z,55.08
2023-03-29T08:10:53.702Z,54.52
2023-03-29T08:11:55.807Z,53.42
2023-03-29T08:12:58.569Z,53.62
2023-03-29T08:14:00.335Z,52.60
2023-03-29T08:15:02.188Z,52.85
2023-03-29T08:16:05.952Z,52.87
2023-03-29T08:17:09.173Z,51.69
2023-03-29T08:18:11.207Z,52.34
2023-03-29T08:19:14.148Z,53.91
2023-03-29T08:20:17.728Z,52.53
2023-03-29T08:21:20.679Z,52.93
2023-03-29T08:22:23.457Z,52.70
2023-03-29T08:23:25.389Z,52.60
2023-03-29T08:24:27.439Z,52.64
2023-03-29T08:25:29.597Z,51.68
2023-03-29T08:26:33.136Z,52.21
2023-03-29T08:27:35.542Z,51.81
2023-03-29T08:28:38.173Z,50.73
2023-03-29T08:29:39.812Z,51.02
2023-03-29T08:30:42.161Z,50.80
2023-03-29T08:31:44.169Z,50.07
2023-03-29T08:32:49.327Z,49.93
2023-03-29T08:33:53.514Z,49.99
2023-03-29T08:34:55.596Z,50.27
2023-03-29T08:35:57.873Z,51.10
2023-03-29T08:37:00.054Z,50.45
2023-03-29T08:38:02.671Z,49.76
2023-03-29T08:39:06.696Z,47.60
2023-03-29T08:40:15.264Z,47.98
2023-03-29T08:41:34.878Z,47.33
2023-03-29T08:42:57.843Z,47.05
2023-03-29T08:44:33.852Z,46.12
2023-03-29T08:46:02.006Z,47.47
2023-03-29T08:47:20.710Z,47.41
2023-03-29T08:48:36.725Z,48.05
2023-03-29T08:49:42.033Z,47.42
2023-03-29T08:50:48.673Z,46.24
2023-03-29T08:51:57.039Z,46.76
2023-03-29T08:53:10.240Z,46.55
2023-03-29T08:54:21.002Z,48.19
2023-03-29T08:55:35.993Z,45.97
2023-03-29T08:56:41.300Z,45.18
2023-03-29T08:57:46.655Z,43.61
2023-03-29T08:58:51.965Z,43.36
2023-03-29T08:59:57.247Z,43.71
2023-03-29T09:01:01.602Z,41.06
2023-03-29T09:02:10.174Z,41.14
2023-03-29T09:03:22.615Z,41.86
2023-03-29T09:04:30.713Z,41.94
2023-03-29T09:05:43.762Z,41.48
2023-03-29T09:06:45.758Z,40.76
2023-03-29T09:07:47.676Z,40.70
2023-03-29T09:08:52.845Z,39.33
2023-03-29T09:09:54.606Z,37.91
2023-03-29T09:11:08.171Z,38.38
2023-03-29T09:12:36.684Z,38.59
2023-03-29T09:14:22.077Z,38.13
2023-03-29T09:15:54.203Z,38.04
2023-03-29T09:17:33.492Z,38.90
2023-03-29T09:18:53.502Z,39.15
2023-03-29T09:20:24.805Z,38.68
2023-03-29T09:21:36.779Z,39.94
2023-03-29T09:22:57.013Z,39.76
2023-03-29T09:24:19.553Z,38.60
2023-03-29T09:25:27.695Z,36.85
2023-03-29T09:26:41.884Z,37.18
2023-03-29T09:28:05.511Z,35.38
2023-03-29T09:29:33.812Z,35.81
2023-03-29T09:30:42.276Z,35.64
2023-03-29T09:31:44.839Z,35.10
2023-03-29T09:33:17.332Z,34.65
2023-03-29T09:34:42.218Z,34.35
2023-03-29T09:36:05.185Z,35.40
2023-03-29T09:37:25.930Z,32.89
2023-03-29T09:38:30.612Z,33.64
2023-03-29T09:39:32.345Z,33.84
2023-03-29T09:40:47.691Z,32.70
2023-03-29T09:41:54.889Z,33.14
2023-03-29T09:43:01.466Z,31.84
2023-03-29T09:44:20.572Z,31.57
2023-03-29T09:45:31.360Z,31.74
2023-03-29T09:46:56.220Z,30.92
2023-03-29T09:48:06.692Z,30.41
2023-03-29T09:49:16.731Z,31.33
2023-03-29T09:50:30.730Z,31.00
2023-03-29T09:51:34.467Z,30.60
2023-03-29T09:52:36.369Z,31.57
2023-03-29T09:53:38.424Z,31.99
2023-03-29T09:54:40.910Z,31.21
2023-03-29T09:55:50.913Z,31.37
2023-03-29T09:56:53.727Z,31.37
2023-03-29T09:58:00.965Z,32.00
2023-03-29T09:59:02.953Z,32.65
2023-03-29T10:00:07.116Z,32.78
2023-03-29T10:01:09.360Z,31.76
2023-03-29T10:02:15.024Z,31.57
2023-03-29T10:03:31.456Z,31.32
2023-03-29T10:04:33.651Z,31.59
2023-03-29T10:05:40.127Z,31.47
2023-03-29T10:06:52.178Z,31.89
2023-03-29T10:07:59.664Z,32.05
2023-03-29T10:09:02.326Z,32.63
2023-03-29T10:10:10.673Z,33.41
2023-03-29T10:11:20.542Z,32.39
2023-03-29T10:12:23.172Z,33.59
2023-03-29T10:13:31.125Z,33.63
2023-03-29T10:14:38.283Z,33.93
2023-03-29T10:15:40.167Z,33.96
2023-03-29T10:16:46.516Z,33.49
2023-03-29T10:17:49.834Z,32.33
2023-03-29T10:18:53.602Z,33.26
2023-03-29T10:20:19.137Z,32.52
2023-03-29T10:21:22.440Z,32.55
2023-03-29T10:22:27.722Z,33.09
2023-03-29T10:23:34.073Z,32.78
2023-03-29T10:24:35.738Z,31.39
2023-03-29T10:25:42.990Z,31.98
2023-03-29T10:26:47.398Z,32.34
2023-03-29T10:27:51.376Z,31.40
2023-03-29T10:28:57.246Z,31.70
2023-03-29T10:30:03.581Z,32.01
2023-03-29T10:31:08.556Z,32.42
2023-03-29T10:32:18.652Z,31.91
2023-03-29T10:33:24.267Z,31.23
2023-03-29T10:34:28.360Z,29.03
2023-03-29T10:35:39.985Z,29.29
2023-03-29T10:36:57.688Z,29.30
2023-03-29T10:38:03.677Z,28.35
2023-03-29T10:39:06.505Z,28.83
2023-03-29T10:40:35.798Z,28.67
2023-03-29T10:41:38.894Z,29.71
2023-03-29T10:42:47.209Z,30.39
2023-03-29T10:43:51.990Z,31.04
2023-03-29T10:44:56.822Z,32.11
2023-03-29T10:46:11.167Z,31.92
2023-03-29T10:47:19.659Z,32.40
2023-03-29T10:48:29.400Z,33.41
2023-03-29T10:49:31.464Z,32.83
2023-03-29T10:50:35.748Z,32.62
2023-03-29T10:51:38.690Z,33.62
2023-03-29T10:52:42.001Z,35.37
2023-03-29T10:53:43.841Z,35.00
2023-03-29T10:54:46.693Z,35.03
2023-03-29T10:56:25.687Z,35.49
2023-03-29T10:57:52.801Z,34.31
2023-03-29T10:59:32.102Z,34.88
2023-03-29T11:00:58.842Z,34.01
2023-03-29T11:02:15.634Z,34.35
2023-03-29T11:03:43.763Z,34.61
2023-03-29T11:04:50.890Z,34.83
2023-03-29T11:06:17.531Z,35.46
2023-03-29T11:07:53.491Z,35.33
2023-03-29T11:09:22.775Z,33.92
2023-03-29T11:10:54.263Z,35.36
2023-03-29T11:12:16.099Z,34.60
2023-03-29T11:13:42.918Z,34.66
2023-03-29T11:15:29.532Z,35.78
2023-03-29T11:16:58.156Z,35.77
2023-03-29T11:18:16.445Z,35.55
2023-03-29T11:19:41.722Z,34.74
2023-03-29T11:20:53.996Z,35.14
2023-03-29T11:22:07.062Z,34.18
2023-03-29T11:23:43.250Z,34.15
2023-03-29T11:25:11.186Z,34.12
2023-03-29T11:26:37.833Z,34.53
2023-03-29T11:28:06.567Z,35.07
2023-03-29T11:29:28.438Z,34.42
2023-03-29T11:30:37.791Z,34.77
2023-03-29T11:32:12.247Z,34.97
2023-03-29T11:33:42.892Z,34.52
2023-03-29T11:34:51.496Z,35.13
2023-03-29T11:36:11.576Z,35.48
2023-03-29T11:37:24.622Z,34.32
2023-03-29T11:38:43.280Z,33.94
2023-03-29T11:40:06.013Z,34.40
2023-03-29T11:41:31.882Z,33.70
2023-03-29T11:42:36.300Z,33.08
2023-03-29T11:43:57.086Z,33.17
2023-03-29T11:45:01.895Z,33.72
2023-03-29T11:46:18.999Z,34.21
2023-03-29T11:47:24.506Z,33.43
2023-03-29T11:48:36.184Z,33.50
2023-03-29T11:49:44.144Z,33.00
2023-03-29T11:50:57.899Z,32.97
2023-03-29T11:52:13.872Z,32.74
2023-03-29T11:53:38.812Z,33.89
2023-03-29T11:54:49.393Z,34.08
2023-03-29T11:55:54.032Z,34.88
2023-03-29T11:56:59.920Z,34.66
2023-03-29T11:58:12.895Z,34.11
2023-03-29T11:59:23.482Z,34.59
2023-03-29T12:00:31.117Z,33.97
2023-03-29T12:01:45.343Z,33.75
2023-03-29T12:03:22.470Z,33.57
2023-03-29T12:04:31.680Z,34.07
2023-03-29T12:05:42.962Z,33.62
2023-03-29T12:06:55.152Z,32.85
2023-03-29T12:08:03.808Z,32.92
2023-03-29T12:09:20.498Z,34.59
2023-03-29T12:10:27.500Z,33.80
2023-03-29T12:11:36.857Z,34.33
2023-03-29T12:12:39.893Z,34.93
2023-03-29T12:13:53.056Z,35.91
2023-03-29T12:15:11.032Z,36.03
2023-03-29T12:16:33.506Z,36.19
2023-03-29T12:17:46.505Z,36.68
2023-03-29T12:18:56.592Z,36.02
2023-03-29T12:20:11.857Z,35.60
2023-03-29T12:21:18.908Z,35.41
2023-03-29T12:22:23.473Z,35.50
2023-03-29T12:23:31.480Z,35.24
2023-03-29T12:24:38.687Z,33.89
2023-03-29T12:26:06.980Z,33.89
2023-03-29T12:27:31.919Z,33.92
2023-03-29T12:29:11.505Z,34.33
2023-03-29T12:30:48.473Z,34.66
2023-03-29T12:32:12.827Z,35.99
2023-03-29T12:33:15.905Z,36.06
2023-03-29T12:34:27.868Z,36.86
2023-03-29T12:35:36.240Z,36.58
2023-03-29T12:37:16.520Z,37.47
2023-03-29T12:38:24.095Z,36.60
2023-03-29T12:39:28.619Z,35.99
2023-03-29T12:40:41.918Z,35.46
2023-03-29T12:41:49.354Z,36.17
2023-03-29T12:43:01.469Z,37.28
2023-03-29T12:44:04.599Z,37.43
2023-03-29T12:45:15.429Z,36.64
2023-03-29T12:46:24.882Z,36.61
2023-03-29T12:47:32.608Z,38.16
2023-03-29T12:48:40.308Z,37.49
2023-03-29T12:49:48.068Z,37.13
2023-03-29T12:50:53.956Z,38.50
2023-03-29T12:51:59.148Z,37.62
2023-03-29T12:53:12.943Z,38.25
2023-03-29T12:54:19.164Z,39.05
2023-03-29T12:55:48.157Z,40.88
2023-03-29T12:56:53.277Z,40.02
2023-03-29T12:58:23.295Z,38.75
2023-03-29T12:59:40.000Z,38.17
2023-03-29T13:00:45.099Z,37.94
2023-03-29T13:02:09.327Z,37.65
2023-03-29T13:03:42.838Z,37.81
2023-03-29T13:04:54.636Z,37.94
2023-03-29T13:06:04.243Z,36.97
2023-03-29T13:07:15.639Z,35.22
2023-03-29T13:08:27.030Z,34.76
2023-03-29T13:09:51.218Z,36.04
2023-03-29T13:10:55.559Z,36.28
2023-03-29T13:12:04.585Z,35.12
2023-03-29T13:13:26.895Z,34.92
2023-03-29T13:14:35.728Z,35.83
2023-03-29T13:15:37.844Z,35.94
2023-03-29T13:16:45.145Z,36.18
2023-03-29T13:18:07.543Z,35.77
2023-03-29T13:19:38.666Z,35.29
2023-03-29T13:20:46.360Z,34.85
2023-03-29T13:22:11.667Z,35.04
2023-03-29T13:23:47.104Z,35.48
2023-03-29T13:24:54.945Z,35.60
2023-03-29T13:26:17.835Z,36.15
2023-03-29T13:27:29.991Z,36.26
2023-03-29T13:28:34.648Z,36.08
2023-03-29T13:29:56.682Z,36.65
2023-03-29T13:31:32.919Z,35.60
2023-03-29T13:32:57.765Z,36.71
2023-03-29T13:34:32.498Z,37.07
2023-03-29T13:36:12.693Z,36.78
2023-03-29T13:37:36.751Z,35.60
2023-03-29T13:38:52.125Z,34.51
2023-03-29T13:39:55.557Z,35.09
2023-03-29T13:41:04.053Z,33.70
2023-03-29T13:42:33.584Z,33.77
2023-03-29T13:43:56.351Z,34.06
2023-03-29T13:45:26.341Z,34.59
2023-03-29T13:46:42.753Z,34.90
2023-03-29T13:47:58.351Z,34.41
2023-03-29T13:49:15.875Z,34.47
2023-03-29T13:50:24.716Z,33.83
2023-03-29T13:51:37.038Z,33.58
2023-03-29T13:52:45.430Z,34.24
2023-03-29T13:53:55.668Z,34.06
2023-03-29T13:55:16.276Z,33.46
2023-03-29T13:56:27.503Z,32.58
2023-03-29T13:57:46.534Z,32.41
2023-03-29T13:58:51.929Z,31.65
2023-03-29T14:00:12.063Z,30.56
2023-03-29T14:01:46.174Z,30.02
2023-03-29T14:03:15.328Z,28.81
2023-03-29T14:04:25.813Z,29.72
2023-03-29T14:05:42.186Z,30.02
2023-03-29T14:06:53.212Z,30.15
2023-03-29T14:08:03.084Z,29.80
2023-03-29T14:09:09.439Z,30.33
2023-03-29T14:10:17.698Z,30.13
2023-03-29T14:11:26.708Z,29.74
2023-03-29T14:12:39.530Z,30.48
2023-03-29T14:13:45.421Z,30.38
2023-03-29T14:14:58.786Z,31.02
2023-03-29T14:16:08.952Z,30.99
2023-03-29T14:17:20.930Z,31.23
2023-03-29T14:18:26.155Z,31.36
2023-03-29T14:19:38.076Z,31.04
2023-03-29T14:20:48.432Z,31.28
2023-03-29T14:21:52.419Z,31.16
2023-03-29T14:22:55.847Z,30.41
2023-03-29T14:24:05.496Z,31.50
2023-03-29T14:25:17.532Z,31.40
2023-03-29T14:26:23.936Z,31.64
2023-03-29T14:27:33.447Z,31.55
2023-03-29T14:28:35.815Z,31.55
2023-03-29T14:29:38.369Z,31.71
2023-03-29T14:30:48.453Z,31.85
2023-03-29T14:31:55.518Z,31.69
2023-03-29T14:32:59.061Z,31.66
2023-03-29T14:34:03.909Z,33.12
2023-03-29T14:35:06.290Z,31.91
2023-03-29T14:36:20.581Z,31.84
2023-03-29T14:37:28.008Z,31.50
2023-03-29T14:38:33.805Z,31.06
2023-03-29T14:39:36.521Z,30.72
2023-03-29T14:40:40.529Z,30.56
2023-03-29T14:41:58.578Z,31.18
2023-03-29T14:43:08.286Z,30.80
2023-03-29T14:44:15.562Z,31.00
2023-03-29T14:45:23.623Z,31.09
2023-03-29T14:46:29.037Z,32.17
2023-03-29T14:47:34.959Z,31.96
2023-03-29T14:48:38.323Z,32.12
2023-03-29T14:49:41.319Z,31.93
2023-03-29T14:50:47.559Z,32.15